Hauptseite
METAR-TAF:

METAR-TAF

Flughäfen :

Euro, Niederlande

Bohrplattform

Breite: 51-59-52N, Länge: 3-16-30E, Höhe: 18 m

Beobachtung

Neuester Wetterbericht von vor 34 Minuten, um 06:25 UTC
Wind 16 kt aus Südwest
Temperatur 6°C
Luftfeuchtigkeit 70%
Luftdruck 1004 hPa
Sichtweite 10 km oder mehr

METAR: EHSA 200625Z AUTO 23016KT 9999 ///////// 06/01 Q1004 W07/H14

Zeit: 07:59 (06:59 UTC)


TAF: fehlend

Wetterbeobachtungen und Prognosen von mehr als 4000 Flughäfen (METAR und TAF Bericht).

Die verfügbaren Stationen werden durch gelbe und rote Markierungen auf der Karte dargestellt.

Führen Sie die Maus auf sie, um den Namen der Station zu sehen.

Darauf klicken, um die Beobachtung von Wetterbeobachtungen und Prognosen zu sehen.

Um die Karte zu ändern : klicken Sie auf den grünen Tasten mit einem schwarzen Kreuz Zum Vergrößern, auf den grünen Button mit einem Gedankenstrich zu verkleinern, oder auf die grünen Pfeile für benachbarte Karten.


METAR-TAF: